MMSD

Details ICAO MMSD (SJD)
Name Los Cabos Intl
Region Mexico
Timezone America/Mazatlan (UTC-6.0)
Plans Departing 417
Arriving 623
Stats Elevation 378 ft / 115 m (AMSL)
Location 23.152100° -109.721000°
Runways 1
Magnetic Variation 8.112° E
Sunrise 2020-05-25 12:35:27 UTC / 2020-05-25 06:35:27 Local
Sunset 2020-05-26 01:59:13 UTC / 2020-05-25 19:59:13 Local
Advertisement - Login to hide

Runways

ID Width Length Bearing (true/mag) Surface Threshold Overrun Markings Lighting
16 148 ft / 45 m 9,898 ft / 3,017 m 174.05° / 165.94° ASPHALT 0 ft / 0 m 184 ft / 56 m PREC-APP CENTERLINE EDGE THRESHOLD
34 148 ft / 45 m 9,898 ft / 3,017 m 354.05° / 345.94° ASPHALT 0 ft / 0 m 190 ft / 58 m PREC-APP CENTERLINE EDGE THRESHOLD

Map

Weather


0- 5 10 15 20 25 30 35+ Temperature / °C

Clouds and Precipitation
Forecast for 2020-05-26 00:00 UTC. Updated an hour ago

Ground ~20,000 ft ~40,000 ft Winds

METAR

Not found

TAF

TAF MMSD 251651Z 2518/2618 14012KT P6SM BKN250 FM260300 00000KT P6SM SCT250

Frequencies

Ground 134.10 MHz San Jose Ground
Tower 118.90 MHz San Jose Tower
Recorded 127.60 MHz San Jose ATIS
Approach 120.90 MHz San Jose Approach
Warning: Do not use this data for real-world aviation or navigation. No guarantee of current accuracy is given.